createdAt,value
2023-01-06T00:00:08.192Z,1.85
2023-01-06T00:02:36.813Z,1.70
2023-01-06T00:05:05.362Z,1.88
2023-01-06T00:07:34.833Z,1.50
2023-01-06T00:10:03.433Z,1.90
2023-01-06T00:12:31.809Z,1.48
2023-01-06T00:15:00.242Z,1.63
2023-01-06T00:17:28.657Z,1.33
2023-01-06T00:19:57.053Z,1.25
2023-01-06T00:22:25.476Z,1.50
2023-01-06T00:24:54.942Z,1.40
2023-01-06T00:27:23.450Z,1.63
2023-01-06T00:29:52.070Z,1.95
2023-01-06T00:32:20.490Z,1.42
2023-01-06T00:34:48.899Z,1.50
2023-01-06T00:37:17.271Z,1.70
2023-01-06T00:39:45.677Z,1.63
2023-01-06T00:42:15.127Z,1.30
2023-01-06T00:44:43.791Z,1.67
2023-01-06T00:47:12.770Z,1.42
2023-01-06T00:49:41.208Z,1.30
2023-01-06T00:52:09.570Z,1.38
2023-01-06T00:54:37.997Z,1.42
2023-01-06T00:57:08.083Z,1.80
2023-01-06T00:59:37.666Z,1.50
2023-01-06T01:02:06.236Z,1.45
2023-01-06T01:04:34.797Z,1.30
2023-01-06T01:07:03.192Z,1.20
2023-01-06T01:09:32.502Z,1.38
2023-01-06T01:12:14.152Z,1.52
2023-01-06T01:14:47.135Z,1.08
2023-01-06T01:17:17.458Z,1.83
2023-01-06T01:19:45.856Z,1.20
2023-01-06T01:22:14.368Z,1.25
2023-01-06T01:24:42.767Z,1.35
2023-01-06T01:27:11.688Z,1.30
2023-01-06T01:29:40.091Z,1.45
2023-01-06T01:32:09.902Z,1.23
2023-01-06T01:34:38.385Z,1.00
2023-01-06T01:37:06.764Z,1.30
2023-01-06T01:39:35.274Z,1.23
2023-01-06T01:42:03.645Z,1.65
2023-01-06T01:45:02.997Z,1.30
2023-01-06T01:47:40.073Z,1.02
2023-01-06T01:50:14.439Z,1.02
2023-01-06T01:52:43.830Z,1.20
2023-01-06T01:55:13.438Z,1.40
2023-01-06T01:57:49.905Z,1.05
2023-01-06T02:00:20.076Z,1.13
2023-01-06T02:02:50.469Z,1.00
2023-01-06T02:05:22.928Z,1.17
2023-01-06T02:07:51.405Z,1.00
2023-01-06T02:10:20.964Z,1.10
2023-01-06T02:12:52.286Z,1.00
2023-01-06T02:15:22.721Z,1.10
2023-01-06T02:18:12.377Z,0.75
2023-01-06T02:20:51.009Z,0.90
2023-01-06T02:23:43.912Z,1.15
2023-01-06T02:26:45.166Z,1.05
2023-01-06T02:29:56.444Z,0.90
2023-01-06T02:32:38.502Z,0.95
2023-01-06T02:35:22.465Z,1.15
2023-01-06T02:38:01.719Z,1.00
2023-01-06T02:40:42.272Z,1.00
2023-01-06T02:43:16.872Z,0.77
2023-01-06T02:45:55.935Z,0.80
2023-01-06T02:48:29.862Z,0.85
2023-01-06T02:51:04.988Z,0.80
2023-01-06T02:53:40.543Z,0.98
2023-01-06T02:56:08.980Z,0.60
2023-01-06T02:58:45.853Z,0.70
2023-01-06T03:01:19.096Z,0.80
2023-01-06T03:03:49.529Z,1.10
2023-01-06T03:06:22.045Z,0.70
2023-01-06T03:08:53.103Z,0.90
2023-01-06T03:11:21.682Z,0.80
2023-01-06T03:13:53.929Z,1.20
2023-01-06T03:16:22.523Z,0.85
2023-01-06T03:18:53.702Z,0.70
2023-01-06T03:21:24.331Z,0.77
2023-01-06T03:23:52.888Z,0.70
2023-01-06T03:26:21.323Z,1.20
2023-01-06T03:28:49.675Z,1.00
2023-01-06T03:31:27.447Z,0.70
2023-01-06T03:34:05.165Z,0.80
2023-01-06T03:36:42.511Z,0.70
2023-01-06T03:39:17.511Z,1.17
2023-01-06T03:42:05.850Z,0.68
2023-01-06T03:44:43.349Z,0.52
2023-01-06T03:47:17.181Z,0.68
2023-01-06T03:49:54.960Z,0.55
2023-01-06T03:52:28.846Z,0.63
2023-01-06T03:55:03.923Z,0.60
2023-01-06T03:57:36.422Z,0.68
2023-01-06T04:00:11.389Z,0.75
2023-01-06T04:02:40.747Z,0.60
2023-01-06T04:05:13.503Z,0.70
2023-01-06T04:07:42.255Z,0.60
2023-01-06T04:10:11.459Z,0.73
2023-01-06T04:12:38.880Z,0.60
2023-01-06T04:15:09.314Z,0.65
2023-01-06T04:17:38.000Z,0.57
2023-01-06T04:20:06.741Z,0.60
2023-01-06T04:22:36.457Z,0.47
2023-01-06T04:25:04.971Z,0.60
2023-01-06T04:27:33.400Z,0.52
2023-01-06T04:30:01.811Z,0.70
2023-01-06T04:32:30.258Z,0.40
2023-01-06T04:34:58.664Z,0.60
2023-01-06T04:37:27.105Z,0.68
2023-01-06T04:39:56.609Z,0.55
2023-01-06T04:42:25.111Z,0.70
2023-01-06T04:44:53.599Z,0.60
2023-01-06T04:47:22.034Z,0.60
2023-01-06T04:49:50.425Z,0.50
2023-01-06T04:52:18.857Z,0.43
2023-01-06T04:54:47.252Z,0.75
2023-01-06T04:57:16.765Z,0.40
2023-01-06T04:59:45.149Z,0.45
2023-01-06T05:02:13.567Z,0.82
2023-01-06T05:04:47.818Z,0.57
2023-01-06T05:07:16.654Z,0.50
2023-01-06T05:09:45.061Z,0.47
2023-01-06T05:12:13.480Z,0.50
2023-01-06T05:14:43.977Z,0.40
2023-01-06T05:17:12.601Z,0.50
2023-01-06T05:19:42.965Z,0.40
2023-01-06T05:22:11.388Z,0.50
2023-01-06T05:24:39.847Z,0.50
2023-01-06T05:27:08.528Z,0.40
2023-01-06T05:29:37.042Z,0.70
2023-01-06T05:32:08.218Z,0.60
2023-01-06T05:34:37.228Z,0.45
2023-01-06T05:37:05.941Z,0.30
2023-01-06T05:39:34.372Z,0.40
2023-01-06T05:42:02.761Z,0.32
2023-01-06T05:44:31.630Z,0.60
2023-01-06T05:47:00.063Z,0.35
2023-01-06T05:49:29.606Z,0.40
2023-01-06T05:51:57.725Z,0.50
2023-01-06T05:54:26.926Z,0.40
2023-01-06T05:56:55.401Z,0.60
2023-01-06T05:59:23.823Z,0.65
2023-01-06T06:01:52.248Z,0.40
2023-01-06T06:04:20.688Z,0.40
2023-01-06T06:06:51.273Z,0.30
2023-01-06T06:09:19.692Z,0.68
2023-01-06T06:11:51.752Z,0.30
2023-01-06T06:14:20.224Z,0.30
2023-01-06T06:16:48.658Z,0.30
2023-01-06T06:19:17.152Z,0.30
2023-01-06T06:21:45.557Z,0.40
2023-01-06T06:24:15.398Z,0.77
2023-01-06T06:26:44.693Z,0.40
2023-01-06T06:29:13.158Z,0.40
2023-01-06T06:31:41.610Z,0.40
2023-01-06T06:34:13.836Z,0.65
2023-01-06T06:36:42.232Z,0.82
2023-01-06T06:39:10.686Z,0.52
2023-01-06T06:41:40.739Z,1.00
2023-01-06T06:44:09.434Z,0.90
2023-01-06T06:46:37.847Z,0.80
2023-01-06T06:49:06.257Z,0.40
2023-01-06T06:51:36.109Z,0.57
2023-01-06T06:54:05.206Z,0.68
2023-01-06T06:56:33.834Z,1.15
2023-01-06T06:59:03.402Z,0.85
2023-01-06T07:01:32.599Z,0.70
2023-01-06T07:04:01.135Z,0.88
2023-01-06T07:06:29.860Z,1.10
2023-01-06T07:08:58.444Z,0.73
2023-01-06T07:11:26.641Z,0.60
2023-01-06T07:13:55.857Z,1.23
2023-01-06T07:16:26.788Z,0.90
2023-01-06T07:18:55.144Z,0.60
2023-01-06T07:21:23.274Z,0.70
2023-01-06T07:23:51.683Z,0.65
2023-01-06T07:26:19.828Z,0.60
2023-01-06T07:28:47.989Z,0.50
2023-01-06T07:31:16.680Z,0.60
2023-01-06T07:33:46.223Z,0.60
2023-01-06T07:36:14.373Z,0.40
2023-01-06T07:38:42.522Z,0.82
2023-01-06T07:41:10.916Z,0.73
2023-01-06T07:43:39.377Z,0.63
2023-01-06T07:46:07.955Z,0.57
2023-01-06T07:48:37.632Z,0.45
2023-01-06T07:51:07.361Z,0.70
2023-01-06T07:56:05.305Z,0.85
2023-01-06T07:58:33.623Z,0.60
2023-01-06T08:01:07.215Z,0.77
2023-01-06T08:03:35.893Z,0.40
2023-01-06T08:06:09.709Z,0.55
2023-01-06T08:08:39.536Z,0.70
2023-01-06T08:11:08.559Z,0.80
2023-01-06T08:13:36.963Z,0.57
2023-01-06T08:16:06.268Z,0.47
2023-01-06T08:18:36.077Z,0.43
2023-01-06T08:21:05.841Z,0.70
2023-01-06T08:23:36.581Z,0.40
2023-01-06T08:26:05.539Z,0.55
2023-01-06T08:28:35.025Z,0.55
2023-01-06T08:31:04.328Z,0.43
2023-01-06T08:33:32.542Z,0.43
2023-01-06T08:36:01.757Z,0.70
2023-01-06T08:38:31.713Z,0.30
2023-01-06T08:41:01.421Z,0.47
2023-01-06T08:43:30.048Z,0.22
2023-01-06T08:46:00.555Z,0.68
2023-01-06T08:48:29.247Z,0.38
2023-01-06T08:51:02.807Z,0.30
2023-01-06T08:53:31.027Z,0.40
2023-01-06T08:56:00.789Z,0.28
2023-01-06T08:58:28.969Z,0.30
2023-01-06T09:00:57.746Z,0.32
2023-01-06T09:03:26.149Z,0.30
2023-01-06T09:05:55.440Z,0.40
2023-01-06T09:08:23.812Z,0.40
2023-01-06T09:10:52.259Z,0.30
2023-01-06T09:13:21.780Z,0.30
2023-01-06T09:15:52.965Z,0.20
2023-01-06T09:18:21.423Z,0.30
2023-01-06T09:20:49.940Z,0.30
2023-01-06T09:23:18.381Z,0.28
2023-01-06T09:25:47.128Z,0.25
2023-01-06T09:28:15.266Z,0.38
2023-01-06T09:30:47.312Z,0.30
2023-01-06T09:33:15.956Z,0.35
2023-01-06T09:35:44.894Z,0.20
2023-01-06T09:38:13.101Z,0.30
2023-01-06T09:40:50.262Z,0.30
2023-01-06T09:43:26.933Z,0.40
2023-01-06T09:46:02.243Z,0.50
2023-01-06T09:48:34.744Z,0.30
2023-01-06T09:51:09.376Z,0.20
2023-01-06T09:53:41.773Z,0.10
2023-01-06T09:56:15.065Z,0.20
2023-01-06T09:58:48.123Z,0.20
2023-01-06T10:01:23.900Z,0.20
2023-01-06T10:03:55.998Z,0.20
2023-01-06T10:06:32.035Z,0.20
2023-01-06T10:09:09.233Z,0.32
2023-01-06T10:11:49.731Z,0.30
2023-01-06T10:14:25.996Z,0.20
2023-01-06T10:17:31.157Z,0.17
2023-01-06T10:20:09.596Z,0.20
2023-01-06T10:22:48.465Z,0.25
2023-01-06T10:25:20.530Z,0.10
2023-01-06T10:27:52.305Z,0.10
2023-01-06T10:30:24.857Z,0.20
2023-01-06T10:32:55.775Z,0.10
2023-01-06T10:35:27.361Z,0.30
2023-01-06T10:37:57.256Z,0.20
2023-01-06T10:40:26.943Z,0.30
2023-01-06T10:43:00.230Z,0.20
2023-01-06T10:45:30.968Z,0.35
2023-01-06T10:48:01.672Z,0.13
2023-01-06T10:50:30.201Z,0.20
2023-01-06T10:52:58.584Z,0.20
2023-01-06T10:55:47.262Z,0.17
2023-01-06T10:58:23.803Z,0.17
2023-01-06T11:01:00.432Z,0.20
2023-01-06T11:03:34.894Z,0.20
2023-01-06T11:06:13.962Z,0.20
2023-01-06T11:08:42.583Z,0.20
2023-01-06T11:11:27.250Z,0.20
2023-01-06T11:13:58.900Z,0.10
2023-01-06T11:16:29.103Z,0.20
2023-01-06T11:19:01.142Z,0.20
2023-01-06T11:21:40.660Z,0.30
2023-01-06T11:24:19.031Z,0.20
2023-01-06T11:26:53.226Z,0.20
2023-01-06T11:29:30.879Z,0.50
2023-01-06T11:32:03.489Z,0.35
2023-01-06T11:34:33.892Z,0.38
2023-01-06T11:37:02.122Z,0.30
2023-01-06T11:39:34.292Z,0.30
2023-01-06T11:42:10.994Z,0.22
2023-01-06T11:44:41.319Z,0.30
2023-01-06T11:47:14.875Z,0.20
2023-01-06T11:49:49.651Z,0.30
2023-01-06T11:52:24.309Z,0.22
2023-01-06T11:55:01.553Z,0.20
2023-01-06T11:57:35.876Z,0.20
2023-01-06T12:00:35.777Z,0.20
2023-01-06T12:03:12.471Z,0.22
2023-01-06T12:05:51.889Z,0.30
2023-01-06T12:08:24.450Z,0.25
2023-01-06T12:10:57.959Z,0.20
2023-01-06T12:13:27.479Z,0.10
2023-01-06T12:16:02.587Z,0.40
2023-01-06T12:18:34.128Z,0.43
2023-01-06T12:21:06.654Z,0.30
2023-01-06T12:23:38.586Z,0.30
2023-01-06T12:26:17.214Z,0.20
2023-01-06T12:28:48.080Z,0.30
2023-01-06T12:31:21.575Z,0.30
2023-01-06T12:33:58.696Z,0.30
2023-01-06T12:36:36.359Z,0.30
2023-01-06T12:39:07.045Z,0.30
2023-01-06T12:41:40.891Z,0.30
2023-01-06T12:44:17.532Z,0.40
2023-01-06T12:46:54.237Z,0.43
2023-01-06T12:49:30.757Z,0.38
2023-01-06T12:52:04.578Z,0.50
2023-01-06T12:54:34.667Z,0.80
2023-01-06T12:57:21.610Z,0.73
2023-01-06T13:00:08.033Z,0.68
2023-01-06T13:02:55.763Z,0.50
2023-01-06T13:05:47.227Z,0.75
2023-01-06T13:08:28.442Z,0.77
2023-01-06T13:11:08.288Z,0.77
2023-01-06T13:16:20.127Z,0.80
2023-01-06T13:18:58.473Z,0.73
2023-01-06T13:21:27.329Z,0.93
2023-01-06T13:24:19.519Z,1.00
2023-01-06T13:27:17.399Z,0.98
2023-01-06T13:30:02.033Z,0.80
2023-01-06T13:32:48.256Z,0.75
2023-01-06T13:35:28.480Z,0.70
2023-01-06T13:38:14.107Z,1.08
2023-01-06T13:40:45.404Z,1.10
2023-01-06T13:43:23.611Z,0.73
2023-01-06T13:45:58.782Z,0.93
2023-01-06T13:48:30.921Z,0.75
2023-01-06T13:51:00.850Z,1.02
2023-01-06T13:53:29.046Z,0.75
2023-01-06T13:56:27.186Z,1.00
2023-01-06T13:59:20.727Z,0.60
2023-01-06T14:01:49.471Z,0.60
2023-01-06T14:04:47.365Z,0.70
2023-01-06T14:07:17.495Z,0.57
2023-01-06T14:09:50.969Z,0.70
2023-01-06T14:12:24.065Z,0.60
2023-01-06T14:15:00.986Z,0.40
2023-01-06T14:17:39.341Z,0.70
2023-01-06T14:20:22.577Z,0.65
2023-01-06T14:23:02.037Z,0.60
2023-01-06T14:25:31.740Z,1.00
2023-01-06T14:28:26.917Z,1.10
2023-01-06T14:31:29.378Z,0.60
2023-01-06T14:33:58.534Z,0.85
2023-01-06T14:36:28.406Z,0.60
2023-01-06T14:41:30.235Z,0.80
2023-01-06T14:44:04.686Z,0.93
2023-01-06T14:46:40.456Z,1.00
2023-01-06T14:49:16.116Z,0.93
2023-01-06T14:51:46.283Z,0.75
2023-01-06T14:54:22.859Z,0.82
2023-01-06T14:56:55.136Z,0.90
2023-01-06T14:59:25.041Z,0.63
2023-01-06T15:04:31.249Z,1.10
2023-01-06T15:07:02.463Z,0.73
2023-01-06T15:09:31.042Z,0.80
2023-01-06T15:11:59.285Z,0.82
2023-01-06T15:14:34.380Z,0.80
2023-01-06T15:17:05.537Z,1.17
2023-01-06T15:19:34.424Z,0.90
2023-01-06T15:22:07.541Z,0.90
2023-01-06T15:24:38.391Z,0.63
2023-01-06T15:27:08.615Z,0.70
2023-01-06T15:29:41.155Z,0.52
2023-01-06T15:32:14.241Z,1.27
2023-01-06T15:34:46.553Z,0.68
2023-01-06T15:37:19.449Z,0.60
2023-01-06T15:39:48.536Z,0.90
2023-01-06T15:42:20.239Z,0.90
2023-01-06T15:44:57.743Z,0.80
2023-01-06T15:47:32.782Z,0.60
2023-01-06T15:50:03.485Z,0.77
2023-01-06T15:52:35.322Z,0.80
2023-01-06T15:55:06.793Z,0.70
2023-01-06T15:57:39.414Z,0.85
2023-01-06T16:00:20.463Z,0.63
2023-01-06T16:02:49.381Z,0.60
2023-01-06T16:05:39.700Z,0.60
2023-01-06T16:08:18.921Z,0.70
2023-01-06T16:10:47.709Z,0.80
2023-01-06T16:13:28.655Z,0.70
2023-01-06T16:16:02.361Z,0.68
2023-01-06T16:18:33.096Z,0.60
2023-01-06T16:21:14.146Z,0.80
2023-01-06T16:23:42.467Z,0.77
2023-01-06T16:26:14.530Z,0.70
2023-01-06T16:28:46.263Z,0.70
2023-01-06T16:31:28.467Z,1.40
2023-01-06T16:33:57.206Z,0.57
2023-01-06T16:36:26.380Z,0.60
2023-01-06T16:38:54.651Z,0.40
2023-01-06T16:41:22.918Z,0.45
2023-01-06T16:43:52.184Z,0.65
2023-01-06T16:46:27.282Z,0.50
2023-01-06T16:48:56.600Z,0.50
2023-01-06T16:51:25.547Z,0.70
2023-01-06T16:53:56.197Z,0.57
2023-01-06T16:56:24.955Z,0.50
2023-01-06T16:58:54.537Z,0.50
2023-01-06T17:01:26.492Z,0.60
2023-01-06T17:03:57.569Z,0.70
2023-01-06T17:06:28.146Z,0.60
2023-01-06T17:08:58.261Z,0.40
2023-01-06T17:11:29.322Z,0.60
2023-01-06T17:13:59.115Z,0.60
2023-01-06T17:16:32.301Z,0.50
2023-01-06T17:19:03.032Z,0.60
2023-01-06T17:21:35.368Z,1.10
2023-01-06T17:24:11.630Z,0.80
2023-01-06T17:26:40.544Z,0.65
2023-01-06T17:29:15.046Z,0.70
2023-01-06T17:31:47.249Z,0.57
2023-01-06T17:34:17.593Z,0.60
2023-01-06T17:36:47.913Z,0.43
2023-01-06T17:39:20.886Z,0.80
2023-01-06T17:41:50.495Z,0.75
2023-01-06T17:44:20.587Z,0.55
2023-01-06T17:46:50.898Z,0.60
2023-01-06T17:49:37.480Z,0.50
2023-01-06T17:52:16.697Z,0.40
2023-01-06T17:55:10.746Z,0.50
2023-01-06T17:57:42.231Z,0.52
2023-01-06T18:00:20.839Z,0.80
2023-01-06T18:02:55.915Z,0.60
2023-01-06T18:06:08.757Z,0.73
2023-01-06T18:08:38.791Z,0.70
2023-01-06T18:11:22.207Z,0.70
2023-01-06T18:13:51.774Z,0.60
2023-01-06T18:16:27.700Z,0.40
2023-01-06T18:19:02.898Z,0.80
2023-01-06T18:21:36.277Z,0.85
2023-01-06T18:24:16.662Z,0.82
2023-01-06T18:26:49.174Z,0.98
2023-01-06T18:29:20.062Z,0.98
2023-01-06T18:31:51.367Z,0.80
2023-01-06T18:34:32.246Z,0.93
2023-01-06T18:37:02.316Z,1.45
2023-01-06T18:39:32.249Z,0.90
2023-01-06T18:42:16.885Z,0.98
2023-01-06T18:44:45.197Z,1.00
2023-01-06T18:47:16.475Z,1.90
2023-01-06T18:49:49.496Z,1.30
2023-01-06T18:52:36.408Z,1.30
2023-01-06T18:55:19.499Z,1.33
2023-01-06T18:57:55.924Z,1.35
2023-01-06T19:00:33.719Z,1.02
2023-01-06T19:03:10.216Z,1.02
2023-01-06T19:05:39.745Z,1.33
2023-01-06T19:08:15.933Z,0.82
2023-01-06T19:10:45.911Z,1.08
2023-01-06T19:15:44.613Z,1.17
2023-01-06T19:18:15.777Z,0.88
2023-01-06T19:20:46.521Z,1.02
2023-01-06T19:23:19.520Z,0.90
2023-01-06T19:25:51.496Z,1.25
2023-01-06T19:28:21.949Z,1.00
2023-01-06T19:30:52.257Z,1.27
2023-01-06T19:33:40.440Z,1.00
2023-01-06T19:36:39.963Z,1.00
2023-01-06T19:39:31.575Z,1.02
2023-01-06T19:42:10.290Z,1.00
2023-01-06T19:44:41.749Z,1.23
2023-01-06T19:47:19.572Z,1.00
2023-01-06T19:49:53.241Z,1.45
2023-01-06T19:52:35.092Z,1.73
2023-01-06T19:55:19.413Z,2.78
2023-01-06T19:57:51.582Z,1.60
2023-01-06T20:00:32.047Z,1.80
2023-01-06T20:03:03.612Z,1.40
2023-01-06T20:05:32.923Z,1.30
2023-01-06T20:08:02.457Z,1.27
2023-01-06T20:10:30.875Z,1.08
2023-01-06T20:12:59.346Z,1.00
2023-01-06T20:15:28.710Z,1.23
2023-01-06T20:17:56.864Z,1.35
2023-01-06T20:20:25.277Z,1.33
2023-01-06T20:22:53.425Z,0.93
2023-01-06T20:25:23.016Z,1.15
2023-01-06T20:27:51.305Z,1.20
2023-01-06T20:30:19.676Z,0.93
2023-01-06T20:32:47.784Z,0.90
2023-01-06T20:35:16.875Z,0.93
2023-01-06T20:37:45.055Z,0.90
2023-01-06T20:40:13.470Z,0.90
2023-01-06T20:42:44.036Z,1.00
2023-01-06T20:45:13.415Z,1.08
2023-01-06T20:47:41.885Z,0.97
2023-01-06T20:50:13.805Z,1.00
2023-01-06T20:52:42.327Z,1.15
2023-01-06T20:55:10.877Z,0.90
2023-01-06T20:57:39.343Z,0.90
2023-01-06T21:00:11.035Z,1.73
2023-01-06T21:02:40.751Z,1.90
2023-01-06T21:05:10.806Z,1.55
2023-01-06T21:10:10.007Z,1.20
2023-01-06T21:12:38.891Z,1.25
2023-01-06T21:15:09.976Z,1.45
2023-01-06T21:17:38.107Z,1.20
2023-01-06T21:20:07.801Z,1.15
2023-01-06T21:22:35.964Z,1.17
2023-01-06T21:25:04.194Z,0.90
2023-01-06T21:27:32.375Z,1.17
2023-01-06T21:30:01.877Z,0.98
2023-01-06T21:32:31.413Z,1.30
2023-01-06T21:34:59.744Z,0.88
2023-01-06T21:37:28.195Z,0.93
2023-01-06T21:39:56.347Z,0.95
2023-01-06T21:42:41.977Z,0.88
2023-01-06T21:45:11.474Z,0.93
2023-01-06T21:47:40.989Z,0.90
2023-01-06T21:50:09.995Z,0.80
2023-01-06T21:52:41.241Z,0.90
2023-01-06T21:55:16.721Z,0.80
2023-01-06T21:57:46.748Z,0.70
2023-01-06T22:00:16.602Z,0.80
2023-01-06T22:02:47.117Z,1.00
2023-01-06T22:05:15.819Z,0.90
2023-01-06T22:07:47.825Z,0.70
2023-01-06T22:10:19.754Z,1.10
2023-01-06T22:12:49.789Z,1.02
2023-01-06T22:17:47.574Z,0.75
2023-01-06T22:20:17.587Z,0.85
2023-01-06T22:25:14.253Z,0.73
2023-01-06T22:27:42.682Z,0.70
2023-01-06T22:30:11.939Z,0.80
2023-01-06T22:32:44.205Z,0.70
2023-01-06T22:35:16.916Z,0.90
2023-01-06T22:37:45.713Z,0.80
2023-01-06T22:40:15.685Z,0.88
2023-01-06T22:45:12.929Z,0.80
2023-01-06T22:47:41.316Z,0.80
2023-01-06T22:50:10.669Z,0.73
2023-01-06T22:52:40.174Z,0.90
2023-01-06T22:55:09.542Z,0.75
2023-01-06T22:57:37.730Z,0.65
2023-01-06T23:00:12.052Z,0.70
2023-01-06T23:02:40.469Z,0.70
2023-01-06T23:05:09.184Z,0.63
2023-01-06T23:07:40.988Z,0.70
2023-01-06T23:10:11.672Z,0.68
2023-01-06T23:12:41.551Z,0.70
2023-01-06T23:15:10.857Z,0.70
2023-01-06T23:17:39.003Z,0.70
2023-01-06T23:20:07.948Z,0.95
2023-01-06T23:22:37.267Z,0.65
2023-01-06T23:25:09.687Z,0.65
2023-01-06T23:27:39.044Z,0.73
2023-01-06T23:30:08.174Z,0.70
2023-01-06T23:32:36.343Z,0.60
2023-01-06T23:35:04.795Z,0.60
2023-01-06T23:37:33.207Z,0.55
2023-01-06T23:40:01.636Z,0.70
2023-01-06T23:42:34.447Z,0.90
2023-01-06T23:45:05.891Z,0.52
2023-01-06T23:47:34.349Z,0.70
2023-01-06T23:50:02.463Z,0.73
2023-01-06T23:52:30.605Z,0.60
2023-01-06T23:54:59.010Z,0.60
2023-01-06T23:57:27.455Z,0.50
2023-01-06T23:59:57.072Z,0.70
